sensor_id;sensor_type;location;lat;lon;timestamp;temperature;humidity
21355;DHT22;10835;50.148;19.760;2022-07-29T00:00:38;31.10;38.70
21355;DHT22;10835;50.148;19.760;2022-07-29T00:03:25;31.20;38.50
21355;DHT22;10835;50.148;19.760;2022-07-29T00:06:13;31.20;38.50
21355;DHT22;10835;50.148;19.760;2022-07-29T00:09:00;31.30;38.50
21355;DHT22;10835;50.148;19.760;2022-07-29T00:11:47;31.20;38.10
21355;DHT22;10835;50.148;19.760;2022-07-29T00:14:34;31.20;38.20
21355;DHT22;10835;50.148;19.760;2022-07-29T00:17:21;31.00;38.10
21355;DHT22;10835;50.148;19.760;2022-07-29T00:20:09;31.00;38.20
21355;DHT22;10835;50.148;19.760;2022-07-29T00:22:57;30.90;38.10
21355;DHT22;10835;50.148;19.760;2022-07-29T00:25:44;30.60;38.00
21355;DHT22;10835;50.148;19.760;2022-07-29T00:28:31;30.50;38.20
21355;DHT22;10835;50.148;19.760;2022-07-29T00:31:17;30.50;38.10
21355;DHT22;10835;50.148;19.760;2022-07-29T00:34:04;30.40;38.20
21355;DHT22;10835;50.148;19.760;2022-07-29T00:36:51;30.40;38.30
21355;DHT22;10835;50.148;19.760;2022-07-29T00:39:38;30.20;38.20
21355;DHT22;10835;50.148;19.760;2022-07-29T00:42:25;30.20;38.30
21355;DHT22;10835;50.148;19.760;2022-07-29T00:45:13;30.10;38.40
21355;DHT22;10835;50.148;19.760;2022-07-29T00:47:59;30.20;38.50
21355;DHT22;10835;50.148;19.760;2022-07-29T00:50:46;30.10;38.80
21355;DHT22;10835;50.148;19.760;2022-07-29T00:53:33;30.20;38.90
21355;DHT22;10835;50.148;19.760;2022-07-29T00:56:21;30.30;38.70
21355;DHT22;10835;50.148;19.760;2022-07-29T00:59:08;30.40;38.60
21355;DHT22;10835;50.148;19.760;2022-07-29T01:01:55;30.40;38.30
21355;DHT22;10835;50.148;19.760;2022-07-29T01:04:41;30.40;38.40
21355;DHT22;10835;50.148;19.760;2022-07-29T01:07:28;30.20;38.40
21355;DHT22;10835;50.148;19.760;2022-07-29T01:10:16;30.20;38.70
21355;DHT22;10835;50.148;19.760;2022-07-29T01:13:06;30.30;38.70
21355;DHT22;10835;50.148;19.760;2022-07-29T01:15:58;30.40;38.60
21355;DHT22;10835;50.148;19.760;2022-07-29T01:18:47;30.40;38.70
21355;DHT22;10835;50.148;19.760;2022-07-29T01:21:50;30.10;38.70
21355;DHT22;10835;50.148;19.760;2022-07-29T01:24:52;30.30;38.90
21355;DHT22;10835;50.148;19.760;2022-07-29T01:28:13;30.40;38.80
21355;DHT22;10835;50.148;19.760;2022-07-29T01:31:10;30.40;38.50
21355;DHT22;10835;50.148;19.760;2022-07-29T01:34:17;30.30;38.50
21355;DHT22;10835;50.148;19.760;2022-07-29T01:37:11;30.30;38.60
21355;DHT22;10835;50.148;19.760;2022-07-29T01:40:02;30.20;38.70
21355;DHT22;10835;50.148;19.760;2022-07-29T01:42:52;30.40;38.80
21355;DHT22;10835;50.148;19.760;2022-07-29T01:45:43;30.40;38.70
21355;DHT22;10835;50.148;19.760;2022-07-29T01:48:38;30.40;38.70
21355;DHT22;10835;50.148;19.760;2022-07-29T01:51:31;30.20;38.20
21355;DHT22;10835;50.148;19.760;2022-07-29T01:54:21;30.10;38.70
21355;DHT22;10835;50.148;19.760;2022-07-29T01:57:16;30.20;39.00
21355;DHT22;10835;50.148;19.760;2022-07-29T02:00:06;30.10;38.80
21355;DHT22;10835;50.148;19.760;2022-07-29T02:03:02;30.10;38.90
21355;DHT22;10835;50.148;19.760;2022-07-29T02:05:56;30.10;39.00
21355;DHT22;10835;50.148;19.760;2022-07-29T02:08:45;30.30;38.90
21355;DHT22;10835;50.148;19.760;2022-07-29T02:11:34;30.20;38.70
21355;DHT22;10835;50.148;19.760;2022-07-29T02:14:23;30.30;38.90
21355;DHT22;10835;50.148;19.760;2022-07-29T02:17:11;30.10;39.00
21355;DHT22;10835;50.148;19.760;2022-07-29T02:20:02;29.90;39.20
21355;DHT22;10835;50.148;19.760;2022-07-29T02:22:52;29.90;39.40
21355;DHT22;10835;50.148;19.760;2022-07-29T02:25:42;29.80;39.50
21355;DHT22;10835;50.148;19.760;2022-07-29T02:28:30;29.60;39.50
21355;DHT22;10835;50.148;19.760;2022-07-29T02:31:21;29.70;39.70
21355;DHT22;10835;50.148;19.760;2022-07-29T02:34:10;29.80;39.60
21355;DHT22;10835;50.148;19.760;2022-07-29T02:37:03;29.90;39.60
21355;DHT22;10835;50.148;19.760;2022-07-29T02:39:53;29.80;39.50
21355;DHT22;10835;50.148;19.760;2022-07-29T02:42:42;29.80;39.60
21355;DHT22;10835;50.148;19.760;2022-07-29T02:45:30;29.60;39.80
21355;DHT22;10835;50.148;19.760;2022-07-29T02:48:18;29.60;40.10
21355;DHT22;10835;50.148;19.760;2022-07-29T02:51:12;29.70;40.00
21355;DHT22;10835;50.148;19.760;2022-07-29T02:54:25;29.80;39.80
21355;DHT22;10835;50.148;19.760;2022-07-29T02:57:20;29.80;39.70
21355;DHT22;10835;50.148;19.760;2022-07-29T03:00:08;29.60;39.70
21355;DHT22;10835;50.148;19.760;2022-07-29T03:02:59;29.60;39.80
21355;DHT22;10835;50.148;19.760;2022-07-29T03:05:46;29.80;40.00
21355;DHT22;10835;50.148;19.760;2022-07-29T03:08:34;29.80;39.80
21355;DHT22;10835;50.148;19.760;2022-07-29T03:11:21;29.80;39.80
21355;DHT22;10835;50.148;19.760;2022-07-29T03:14:30;29.90;40.10
21355;DHT22;10835;50.148;19.760;2022-07-29T03:17:18;29.90;39.70
21355;DHT22;10835;50.148;19.760;2022-07-29T03:20:09;29.80;40.00
21355;DHT22;10835;50.148;19.760;2022-07-29T03:22:56;29.90;40.00
21355;DHT22;10835;50.148;19.760;2022-07-29T03:25:46;30.10;39.90
21355;DHT22;10835;50.148;19.760;2022-07-29T03:28:32;29.90;39.70
21355;DHT22;10835;50.148;19.760;2022-07-29T03:31:22;30.10;40.20
21355;DHT22;10835;50.148;19.760;2022-07-29T03:34:09;30.10;40.10
21355;DHT22;10835;50.148;19.760;2022-07-29T03:36:56;30.10;40.00
21355;DHT22;10835;50.148;19.760;2022-07-29T03:39:44;30.20;39.90
21355;DHT22;10835;50.148;19.760;2022-07-29T03:42:34;30.30;39.90
21355;DHT22;10835;50.148;19.760;2022-07-29T03:45:23;30.10;39.80
21355;DHT22;10835;50.148;19.760;2022-07-29T03:48:15;30.00;40.10
21355;DHT22;10835;50.148;19.760;2022-07-29T03:51:03;30.00;40.30
21355;DHT22;10835;50.148;19.760;2022-07-29T03:53:51;29.90;40.30
21355;DHT22;10835;50.148;19.760;2022-07-29T03:56:42;30.00;40.30
21355;DHT22;10835;50.148;19.760;2022-07-29T03:59:32;29.70;40.10
21355;DHT22;10835;50.148;19.760;2022-07-29T04:02:20;29.50;40.60
21355;DHT22;10835;50.148;19.760;2022-07-29T04:05:18;29.70;40.80
21355;DHT22;10835;50.148;19.760;2022-07-29T04:08:05;29.80;41.10
21355;DHT22;10835;50.148;19.760;2022-07-29T04:10:52;29.80;41.60
21355;DHT22;10835;50.148;19.760;2022-07-29T04:13:38;29.90;40.70
21355;DHT22;10835;50.148;19.760;2022-07-29T04:16:25;29.90;40.60
21355;DHT22;10835;50.148;19.760;2022-07-29T04:19:12;29.70;40.40
21355;DHT22;10835;50.148;19.760;2022-07-29T04:22:00;29.70;41.20
21355;DHT22;10835;50.148;19.760;2022-07-29T04:24:47;30.00;41.10
21355;DHT22;10835;50.148;19.760;2022-07-29T04:27:34;29.80;40.70
21355;DHT22;10835;50.148;19.760;2022-07-29T04:30:21;30.20;40.90
21355;DHT22;10835;50.148;19.760;2022-07-29T04:33:08;30.30;40.50
21355;DHT22;10835;50.148;19.760;2022-07-29T04:35:54;30.50;40.50
21355;DHT22;10835;50.148;19.760;2022-07-29T04:38:42;30.40;40.30
21355;DHT22;10835;50.148;19.760;2022-07-29T04:41:29;30.60;40.70
21355;DHT22;10835;50.148;19.760;2022-07-29T04:44:18;30.70;39.80
21355;DHT22;10835;50.148;19.760;2022-07-29T04:47:07;30.70;40.70
21355;DHT22;10835;50.148;19.760;2022-07-29T04:49:54;30.70;40.00
21355;DHT22;10835;50.148;19.760;2022-07-29T04:52:41;30.90;40.10
21355;DHT22;10835;50.148;19.760;2022-07-29T04:55:29;31.10;40.60
21355;DHT22;10835;50.148;19.760;2022-07-29T04:58:16;31.20;40.30
21355;DHT22;10835;50.148;19.760;2022-07-29T05:01:03;31.40;40.10
21355;DHT22;10835;50.148;19.760;2022-07-29T05:03:50;31.30;39.40
21355;DHT22;10835;50.148;19.760;2022-07-29T05:06:41;31.00;39.60
21355;DHT22;10835;50.148;19.760;2022-07-29T05:09:28;31.10;40.00
21355;DHT22;10835;50.148;19.760;2022-07-29T05:12:17;31.10;40.10
21355;DHT22;10835;50.148;19.760;2022-07-29T05:15:04;31.20;39.90
21355;DHT22;10835;50.148;19.760;2022-07-29T05:17:51;31.30;39.60
21355;DHT22;10835;50.148;19.760;2022-07-29T05:20:40;31.50;39.80
21355;DHT22;10835;50.148;19.760;2022-07-29T05:23:26;32.00;39.30
21355;DHT22;10835;50.148;19.760;2022-07-29T05:26:13;32.10;38.80
21355;DHT22;10835;50.148;19.760;2022-07-29T05:29:01;32.50;38.60
21355;DHT22;10835;50.148;19.760;2022-07-29T05:31:48;32.40;38.30
21355;DHT22;10835;50.148;19.760;2022-07-29T05:34:36;32.50;38.60
21355;DHT22;10835;50.148;19.760;2022-07-29T05:37:35;32.50;38.50
21355;DHT22;10835;50.148;19.760;2022-07-29T05:40:22;32.40;38.20
21355;DHT22;10835;50.148;19.760;2022-07-29T05:43:09;32.50;38.80
21355;DHT22;10835;50.148;19.760;2022-07-29T05:45:57;32.40;38.60
21355;DHT22;10835;50.148;19.760;2022-07-29T05:48:44;32.20;38.30
21355;DHT22;10835;50.148;19.760;2022-07-29T05:51:31;32.50;38.70
21355;DHT22;10835;50.148;19.760;2022-07-29T05:54:17;32.50;38.40
21355;DHT22;10835;50.148;19.760;2022-07-29T05:57:04;32.60;38.30
21355;DHT22;10835;50.148;19.760;2022-07-29T05:59:51;32.70;38.50
21355;DHT22;10835;50.148;19.760;2022-07-29T06:02:40;32.80;38.50
21355;DHT22;10835;50.148;19.760;2022-07-29T06:05:27;32.80;38.30
21355;DHT22;10835;50.148;19.760;2022-07-29T06:08:13;32.60;38.40
21355;DHT22;10835;50.148;19.760;2022-07-29T06:11:01;32.80;38.60
21355;DHT22;10835;50.148;19.760;2022-07-29T06:13:47;32.60;38.50
21355;DHT22;10835;50.148;19.760;2022-07-29T06:16:34;32.40;38.90
21355;DHT22;10835;50.148;19.760;2022-07-29T06:19:22;32.40;39.40
21355;DHT22;10835;50.148;19.760;2022-07-29T06:22:09;32.50;39.50
21355;DHT22;10835;50.148;19.760;2022-07-29T06:24:55;32.50;39.70
21355;DHT22;10835;50.148;19.760;2022-07-29T06:27:42;32.70;39.80
21355;DHT22;10835;50.148;19.760;2022-07-29T06:30:29;32.60;39.10
21355;DHT22;10835;50.148;19.760;2022-07-29T06:33:19;32.80;39.50
21355;DHT22;10835;50.148;19.760;2022-07-29T06:36:07;32.60;39.70
21355;DHT22;10835;50.148;19.760;2022-07-29T06:38:56;32.70;40.10
21355;DHT22;10835;50.148;19.760;2022-07-29T06:41:46;32.80;39.80
21355;DHT22;10835;50.148;19.760;2022-07-29T06:44:34;32.80;40.30
21355;DHT22;10835;50.148;19.760;2022-07-29T06:47:20;32.70;39.80
21355;DHT22;10835;50.148;19.760;2022-07-29T06:50:08;32.80;39.80
21355;DHT22;10835;50.148;19.760;2022-07-29T06:52:58;33.00;39.60
21355;DHT22;10835;50.148;19.760;2022-07-29T06:55:45;33.20;39.40
21355;DHT22;10835;50.148;19.760;2022-07-29T06:58:32;33.10;39.60
21355;DHT22;10835;50.148;19.760;2022-07-29T07:01:18;33.10;39.70
21355;DHT22;10835;50.148;19.760;2022-07-29T07:04:06;33.00;39.80
21355;DHT22;10835;50.148;19.760;2022-07-29T07:06:54;32.80;39.90
21355;DHT22;10835;50.148;19.760;2022-07-29T07:09:43;32.90;40.70
21355;DHT22;10835;50.148;19.760;2022-07-29T07:12:29;33.00;41.40
21355;DHT22;10835;50.148;19.760;2022-07-29T07:15:16;33.10;40.80
21355;DHT22;10835;50.148;19.760;2022-07-29T07:18:23;32.70;40.00
21355;DHT22;10835;50.148;19.760;2022-07-29T07:21:09;32.70;41.00
21355;DHT22;10835;50.148;19.760;2022-07-29T07:24:03;32.80;40.20
21355;DHT22;10835;50.148;19.760;2022-07-29T07:26:52;32.90;40.30
21355;DHT22;10835;50.148;19.760;2022-07-29T07:29:39;32.90;40.20
21355;DHT22;10835;50.148;19.760;2022-07-29T07:32:29;32.90;40.20
21355;DHT22;10835;50.148;19.760;2022-07-29T07:35:15;33.00;40.60
21355;DHT22;10835;50.148;19.760;2022-07-29T07:38:02;32.80;40.40
21355;DHT22;10835;50.148;19.760;2022-07-29T07:40:49;32.90;40.50
21355;DHT22;10835;50.148;19.760;2022-07-29T07:43:38;32.70;40.50
21355;DHT22;10835;50.148;19.760;2022-07-29T07:46:25;33.00;40.80
21355;DHT22;10835;50.148;19.760;2022-07-29T07:49:12;33.10;40.60
21355;DHT22;10835;50.148;19.760;2022-07-29T07:51:59;33.30;40.70
21355;DHT22;10835;50.148;19.760;2022-07-29T07:54:46;33.40;40.20
21355;DHT22;10835;50.148;19.760;2022-07-29T07:57:33;33.50;40.60
21355;DHT22;10835;50.148;19.760;2022-07-29T08:00:21;33.60;40.50
21355;DHT22;10835;50.148;19.760;2022-07-29T08:03:08;33.90;39.70
21355;DHT22;10835;50.148;19.760;2022-07-29T08:06:02;33.60;40.00
21355;DHT22;10835;50.148;19.760;2022-07-29T08:08:48;33.70;39.60
21355;DHT22;10835;50.148;19.760;2022-07-29T08:11:36;33.70;39.30
21355;DHT22;10835;50.148;19.760;2022-07-29T08:14:36;33.90;39.20
21355;DHT22;10835;50.148;19.760;2022-07-29T08:17:25;34.20;39.50
21355;DHT22;10835;50.148;19.760;2022-07-29T08:20:12;34.20;38.90
21355;DHT22;10835;50.148;19.760;2022-07-29T08:22:59;34.30;38.60
21355;DHT22;10835;50.148;19.760;2022-07-29T08:25:45;34.50;38.50
21355;DHT22;10835;50.148;19.760;2022-07-29T08:28:34;34.40;38.50
21355;DHT22;10835;50.148;19.760;2022-07-29T08:31:21;34.60;38.40
21355;DHT22;10835;50.148;19.760;2022-07-29T08:34:09;34.60;38.20
21355;DHT22;10835;50.148;19.760;2022-07-29T08:36:56;34.70;38.20
21355;DHT22;10835;50.148;19.760;2022-07-29T08:39:42;34.80;38.40
21355;DHT22;10835;50.148;19.760;2022-07-29T08:42:31;34.80;38.30
21355;DHT22;10835;50.148;19.760;2022-07-29T08:45:22;34.80;38.30
21355;DHT22;10835;50.148;19.760;2022-07-29T08:48:09;34.70;37.80
21355;DHT22;10835;50.148;19.760;2022-07-29T08:50:57;34.60;38.10
21355;DHT22;10835;50.148;19.760;2022-07-29T08:53:47;34.50;38.50
21355;DHT22;10835;50.148;19.760;2022-07-29T08:56:35;34.80;39.00
21355;DHT22;10835;50.148;19.760;2022-07-29T08:59:25;34.90;38.50
21355;DHT22;10835;50.148;19.760;2022-07-29T09:02:20;35.10;38.70
21355;DHT22;10835;50.148;19.760;2022-07-29T09:05:07;35.10;37.80
21355;DHT22;10835;50.148;19.760;2022-07-29T09:07:56;35.40;38.20
21355;DHT22;10835;50.148;19.760;2022-07-29T09:10:43;35.50;38.30
21355;DHT22;10835;50.148;19.760;2022-07-29T09:13:30;35.40;38.00
21355;DHT22;10835;50.148;19.760;2022-07-29T09:16:17;35.60;37.70
21355;DHT22;10835;50.148;19.760;2022-07-29T09:19:26;35.70;37.80
21355;DHT22;10835;50.148;19.760;2022-07-29T09:22:28;35.90;37.50
21355;DHT22;10835;50.148;19.760;2022-07-29T09:25:33;36.00;37.50
21355;DHT22;10835;50.148;19.760;2022-07-29T09:28:20;35.80;36.80
21355;DHT22;10835;50.148;19.760;2022-07-29T09:31:08;35.70;36.80
21355;DHT22;10835;50.148;19.760;2022-07-29T09:33:58;35.90;37.50
21355;DHT22;10835;50.148;19.760;2022-07-29T09:36:48;36.00;37.40
21355;DHT22;10835;50.148;19.760;2022-07-29T09:39:36;36.30;38.20
21355;DHT22;10835;50.148;19.760;2022-07-29T09:42:31;36.50;36.60
21355;DHT22;10835;50.148;19.760;2022-07-29T09:45:30;36.30;36.70
21355;DHT22;10835;50.148;19.760;2022-07-29T09:48:18;36.50;36.40
21355;DHT22;10835;50.148;19.760;2022-07-29T09:51:05;36.60;36.40
21355;DHT22;10835;50.148;19.760;2022-07-29T09:54:21;36.60;36.60
21355;DHT22;10835;50.148;19.760;2022-07-29T09:57:09;36.90;37.70
21355;DHT22;10835;50.148;19.760;2022-07-29T10:00:18;36.70;35.90
21355;DHT22;10835;50.148;19.760;2022-07-29T10:03:05;36.60;36.50
21355;DHT22;10835;50.148;19.760;2022-07-29T10:06:06;36.40;36.50
21355;DHT22;10835;50.148;19.760;2022-07-29T10:08:53;36.20;36.20
21355;DHT22;10835;50.148;19.760;2022-07-29T10:11:39;36.40;36.60
21355;DHT22;10835;50.148;19.760;2022-07-29T10:14:42;36.30;37.80
21355;DHT22;10835;50.148;19.760;2022-07-29T10:17:30;36.30;36.60
21355;DHT22;10835;50.148;19.760;2022-07-29T10:20:16;36.30;37.20
21355;DHT22;10835;50.148;19.760;2022-07-29T10:23:04;36.60;37.00
21355;DHT22;10835;50.148;19.760;2022-07-29T10:25:51;36.70;36.90
21355;DHT22;10835;50.148;19.760;2022-07-29T10:28:38;36.80;36.20
21355;DHT22;10835;50.148;19.760;2022-07-29T10:31:29;36.70;36.30
21355;DHT22;10835;50.148;19.760;2022-07-29T10:34:30;36.70;36.40
21355;DHT22;10835;50.148;19.760;2022-07-29T10:37:28;36.60;36.00
21355;DHT22;10835;50.148;19.760;2022-07-29T10:40:28;36.80;37.20
21355;DHT22;10835;50.148;19.760;2022-07-29T10:43:56;36.60;36.10
21355;DHT22;10835;50.148;19.760;2022-07-29T10:46:45;36.60;37.20
21355;DHT22;10835;50.148;19.760;2022-07-29T10:49:34;36.60;37.50
21355;DHT22;10835;50.148;19.760;2022-07-29T10:52:20;36.80;36.50
21355;DHT22;10835;50.148;19.760;2022-07-29T10:55:35;37.00;36.50
21355;DHT22;10835;50.148;19.760;2022-07-29T11:02:41;36.90;35.80
21355;DHT22;10835;50.148;19.760;2022-07-29T11:05:54;37.20;36.30
21355;DHT22;10835;50.148;19.760;2022-07-29T11:08:44;37.20;36.30
21355;DHT22;10835;50.148;19.760;2022-07-29T11:11:31;37.10;35.90
21355;DHT22;10835;50.148;19.760;2022-07-29T11:14:54;36.90;35.80
21355;DHT22;10835;50.148;19.760;2022-07-29T11:18:03;37.00;35.50
21355;DHT22;10835;50.148;19.760;2022-07-29T11:20:52;36.80;36.00
21355;DHT22;10835;50.148;19.760;2022-07-29T11:23:41;36.60;35.90
21355;DHT22;10835;50.148;19.760;2022-07-29T11:26:30;36.30;36.30
21355;DHT22;10835;50.148;19.760;2022-07-29T11:29:19;36.40;37.00
21355;DHT22;10835;50.148;19.760;2022-07-29T11:32:09;36.40;37.30
21355;DHT22;10835;50.148;19.760;2022-07-29T11:35:12;36.60;37.50
21355;DHT22;10835;50.148;19.760;2022-07-29T11:38:26;36.90;37.10
21355;DHT22;10835;50.148;19.760;2022-07-29T11:41:20;37.10;37.20
21355;DHT22;10835;50.148;19.760;2022-07-29T11:44:08;37.30;35.70
21355;DHT22;10835;50.148;19.760;2022-07-29T11:46:54;37.40;35.90
21355;DHT22;10835;50.148;19.760;2022-07-29T11:49:44;37.60;36.30
21355;DHT22;10835;50.148;19.760;2022-07-29T11:52:33;37.50;35.20
21355;DHT22;10835;50.148;19.760;2022-07-29T11:55:37;37.50;34.70
21355;DHT22;10835;50.148;19.760;2022-07-29T11:58:36;37.60;35.30
21355;DHT22;10835;50.148;19.760;2022-07-29T12:01:25;37.70;35.80
21355;DHT22;10835;50.148;19.760;2022-07-29T12:04:12;37.80;35.70
21355;DHT22;10835;50.148;19.760;2022-07-29T12:06:59;37.70;35.10
21355;DHT22;10835;50.148;19.760;2022-07-29T12:09:50;37.70;35.30
21355;DHT22;10835;50.148;19.760;2022-07-29T12:12:51;37.60;35.60
21355;DHT22;10835;50.148;19.760;2022-07-29T12:15:38;37.70;34.50
21355;DHT22;10835;50.148;19.760;2022-07-29T12:18:31;37.80;35.20
21355;DHT22;10835;50.148;19.760;2022-07-29T12:21:18;37.80;35.00
21355;DHT22;10835;50.148;19.760;2022-07-29T12:24:10;37.80;36.10
21355;DHT22;10835;50.148;19.760;2022-07-29T12:26:59;37.80;35.40
21355;DHT22;10835;50.148;19.760;2022-07-29T12:29:56;37.70;34.90
21355;DHT22;10835;50.148;19.760;2022-07-29T12:32:44;37.80;35.50
21355;DHT22;10835;50.148;19.760;2022-07-29T12:35:31;37.90;36.40
21355;DHT22;10835;50.148;19.760;2022-07-29T12:38:20;38.00;36.80
21355;DHT22;10835;50.148;19.760;2022-07-29T12:41:08;38.10;36.10
21355;DHT22;10835;50.148;19.760;2022-07-29T12:43:55;38.00;34.90
21355;DHT22;10835;50.148;19.760;2022-07-29T12:46:43;38.20;35.40
21355;DHT22;10835;50.148;19.760;2022-07-29T12:49:33;38.10;35.00
21355;DHT22;10835;50.148;19.760;2022-07-29T12:52:27;38.00;35.00
21355;DHT22;10835;50.148;19.760;2022-07-29T12:55:14;38.00;35.20
21355;DHT22;10835;50.148;19.760;2022-07-29T12:58:01;38.10;34.60
21355;DHT22;10835;50.148;19.760;2022-07-29T13:01:02;38.10;34.90
21355;DHT22;10835;50.148;19.760;2022-07-29T13:03:53;38.00;35.10
21355;DHT22;10835;50.148;19.760;2022-07-29T13:06:45;37.80;34.90
21355;DHT22;10835;50.148;19.760;2022-07-29T13:09:41;37.80;35.20
21355;DHT22;10835;50.148;19.760;2022-07-29T13:12:28;37.80;34.90
21355;DHT22;10835;50.148;19.760;2022-07-29T13:15:16;37.80;35.40
21355;DHT22;10835;50.148;19.760;2022-07-29T13:18:04;37.80;35.60
21355;DHT22;10835;50.148;19.760;2022-07-29T13:20:52;37.80;35.60
21355;DHT22;10835;50.148;19.760;2022-07-29T13:23:39;37.60;35.70
21355;DHT22;10835;50.148;19.760;2022-07-29T13:26:26;37.80;36.40
21355;DHT22;10835;50.148;19.760;2022-07-29T13:29:15;37.80;35.50
21355;DHT22;10835;50.148;19.760;2022-07-29T13:32:02;37.90;35.40
21355;DHT22;10835;50.148;19.760;2022-07-29T13:34:49;38.10;35.70
21355;DHT22;10835;50.148;19.760;2022-07-29T13:37:37;38.20;34.50
21355;DHT22;10835;50.148;19.760;2022-07-29T13:40:24;38.20;34.90
21355;DHT22;10835;50.148;19.760;2022-07-29T13:43:11;38.20;34.70
21355;DHT22;10835;50.148;19.760;2022-07-29T13:45:58;38.30;34.60
21355;DHT22;10835;50.148;19.760;2022-07-29T13:48:45;38.30;34.70
21355;DHT22;10835;50.148;19.760;2022-07-29T13:51:32;38.30;34.90
21355;DHT22;10835;50.148;19.760;2022-07-29T13:54:20;38.40;35.50
21355;DHT22;10835;50.148;19.760;2022-07-29T13:57:07;38.40;35.40
21355;DHT22;10835;50.148;19.760;2022-07-29T13:59:54;38.50;34.90
21355;DHT22;10835;50.148;19.760;2022-07-29T14:02:41;38.60;35.80
21355;DHT22;10835;50.148;19.760;2022-07-29T14:05:27;38.50;34.80
21355;DHT22;10835;50.148;19.760;2022-07-29T14:08:14;38.30;34.50
21355;DHT22;10835;50.148;19.760;2022-07-29T14:11:03;38.30;34.70
21355;DHT22;10835;50.148;19.760;2022-07-29T14:13:49;38.30;34.30
21355;DHT22;10835;50.148;19.760;2022-07-29T14:16:36;38.10;34.60
21355;DHT22;10835;50.148;19.760;2022-07-29T14:19:32;38.00;34.80
21355;DHT22;10835;50.148;19.760;2022-07-29T14:22:21;37.90;34.80
21355;DHT22;10835;50.148;19.760;2022-07-29T14:25:11;38.00;34.60
21355;DHT22;10835;50.148;19.760;2022-07-29T14:28:01;38.00;34.50
21355;DHT22;10835;50.148;19.760;2022-07-29T14:30:48;37.80;34.50
21355;DHT22;10835;50.148;19.760;2022-07-29T14:33:34;37.80;35.60
21355;DHT22;10835;50.148;19.760;2022-07-29T14:36:21;38.00;36.00
21355;DHT22;10835;50.148;19.760;2022-07-29T14:39:08;38.10;35.60
21355;DHT22;10835;50.148;19.760;2022-07-29T14:41:55;38.20;35.30
21355;DHT22;10835;50.148;19.760;2022-07-29T14:44:44;38.10;34.90
21355;DHT22;10835;50.148;19.760;2022-07-29T14:47:33;38.00;34.90
21355;DHT22;10835;50.148;19.760;2022-07-29T14:50:20;38.10;34.30
21355;DHT22;10835;50.148;19.760;2022-07-29T14:53:16;38.10;34.70
21355;DHT22;10835;50.148;19.760;2022-07-29T14:56:03;38.00;34.20
21355;DHT22;10835;50.148;19.760;2022-07-29T14:59:10;38.00;34.90
21355;DHT22;10835;50.148;19.760;2022-07-29T15:01:58;38.10;35.30
21355;DHT22;10835;50.148;19.760;2022-07-29T15:04:46;38.10;35.60
21355;DHT22;10835;50.148;19.760;2022-07-29T15:07:37;38.20;35.00
21355;DHT22;10835;50.148;19.760;2022-07-29T15:10:23;38.20;34.80
21355;DHT22;10835;50.148;19.760;2022-07-29T15:13:11;38.10;34.70
21355;DHT22;10835;50.148;19.760;2022-07-29T15:15:59;37.90;34.70
21355;DHT22;10835;50.148;19.760;2022-07-29T15:18:47;38.00;35.60
21355;DHT22;10835;50.148;19.760;2022-07-29T15:21:34;38.10;35.10
21355;DHT22;10835;50.148;19.760;2022-07-29T15:24:32;38.10;35.10
21355;DHT22;10835;50.148;19.760;2022-07-29T15:27:19;37.90;34.90
21355;DHT22;10835;50.148;19.760;2022-07-29T15:30:08;37.90;35.50
21355;DHT22;10835;50.148;19.760;2022-07-29T15:33:15;37.90;35.80
21355;DHT22;10835;50.148;19.760;2022-07-29T15:36:03;37.90;35.80
21355;DHT22;10835;50.148;19.760;2022-07-29T15:38:51;37.90;36.10
21355;DHT22;10835;50.148;19.760;2022-07-29T15:41:40;37.80;35.60
21355;DHT22;10835;50.148;19.760;2022-07-29T15:44:26;37.60;35.20
21355;DHT22;10835;50.148;19.760;2022-07-29T15:47:13;37.60;35.90
21355;DHT22;10835;50.148;19.760;2022-07-29T15:50:00;37.80;36.10
21355;DHT22;10835;50.148;19.760;2022-07-29T15:52:48;37.80;36.10
21355;DHT22;10835;50.148;19.760;2022-07-29T15:55:35;37.70;36.10
21355;DHT22;10835;50.148;19.760;2022-07-29T15:58:22;37.70;36.70
21355;DHT22;10835;50.148;19.760;2022-07-29T16:01:09;37.60;35.90
21355;DHT22;10835;50.148;19.760;2022-07-29T16:03:57;37.60;36.10
21355;DHT22;10835;50.148;19.760;2022-07-29T16:06:44;37.60;36.40
21355;DHT22;10835;50.148;19.760;2022-07-29T16:09:33;37.70;36.60
21355;DHT22;10835;50.148;19.760;2022-07-29T16:12:20;37.70;36.30
21355;DHT22;10835;50.148;19.760;2022-07-29T16:15:07;37.60;36.60
21355;DHT22;10835;50.148;19.760;2022-07-29T16:17:55;37.30;36.80
21355;DHT22;10835;50.148;19.760;2022-07-29T16:20:42;37.10;37.80
21355;DHT22;10835;50.148;19.760;2022-07-29T16:23:29;37.10;39.10
21355;DHT22;10835;50.148;19.760;2022-07-29T16:26:17;37.20;40.00
21355;DHT22;10835;50.148;19.760;2022-07-29T16:29:04;37.10;39.90
21355;DHT22;10835;50.148;19.760;2022-07-29T16:31:51;36.70;43.20
21355;DHT22;10835;50.148;19.760;2022-07-29T16:34:41;35.80;45.70
21355;DHT22;10835;50.148;19.760;2022-07-29T16:37:28;34.90;47.10
21355;DHT22;10835;50.148;19.760;2022-07-29T16:40:18;34.50;48.80
21355;DHT22;10835;50.148;19.760;2022-07-29T16:43:06;34.40;49.30
21355;DHT22;10835;50.148;19.760;2022-07-29T16:45:53;34.30;49.90
21355;DHT22;10835;50.148;19.760;2022-07-29T16:48:39;34.30;50.40
21355;DHT22;10835;50.148;19.760;2022-07-29T16:51:26;34.20;51.80
21355;DHT22;10835;50.148;19.760;2022-07-29T16:54:14;34.30;51.40
21355;DHT22;10835;50.148;19.760;2022-07-29T16:57:01;33.40;52.00
21355;DHT22;10835;50.148;19.760;2022-07-29T16:59:50;32.80;53.30
21355;DHT22;10835;50.148;19.760;2022-07-29T17:02:36;33.10;54.30
21355;DHT22;10835;50.148;19.760;2022-07-29T17:05:23;32.80;53.10
21355;DHT22;10835;50.148;19.760;2022-07-29T17:08:10;32.40;54.20
21355;DHT22;10835;50.148;19.760;2022-07-29T17:10:58;32.50;55.40
21355;DHT22;10835;50.148;19.760;2022-07-29T17:13:45;33.00;55.10
21355;DHT22;10835;50.148;19.760;2022-07-29T17:16:33;33.30;54.60
21355;DHT22;10835;50.148;19.760;2022-07-29T17:19:20;33.50;54.10
21355;DHT22;10835;50.148;19.760;2022-07-29T17:22:07;33.60;54.10
21355;DHT22;10835;50.148;19.760;2022-07-29T17:25:03;33.60;53.40
21355;DHT22;10835;50.148;19.760;2022-07-29T17:27:50;33.40;53.70
21355;DHT22;10835;50.148;19.760;2022-07-29T17:30:41;33.50;54.00
21355;DHT22;10835;50.148;19.760;2022-07-29T17:33:29;33.40;54.30
21355;DHT22;10835;50.148;19.760;2022-07-29T17:36:16;33.30;54.10
21355;DHT22;10835;50.148;19.760;2022-07-29T17:39:14;33.40;54.40